sensor_id;sensor_type;location;lat;lon;timestamp;P1;durP1;ratioP1;P2;durP2;ratioP2
2408;SDS011;8463;48.094;7.970;2023-07-20T00:01:28;4.23;;;2.80;;
2408;SDS011;8463;48.094;7.970;2023-07-20T00:03:53;2.93;;;2.73;;
2408;SDS011;8463;48.094;7.970;2023-07-20T00:06:22;2.60;;;2.40;;
2408;SDS011;8463;48.094;7.970;2023-07-20T00:08:50;3.10;;;2.50;;
2408;SDS011;8463;48.094;7.970;2023-07-20T00:11:16;2.50;;;2.30;;
2408;SDS011;8463;48.094;7.970;2023-07-20T00:13:42;3.57;;;2.77;;
2408;SDS011;8463;48.094;7.970;2023-07-20T00:16:07;3.60;;;2.60;;
2408;SDS011;8463;48.094;7.970;2023-07-20T00:18:33;2.23;;;2.03;;
2408;SDS011;8463;48.094;7.970;2023-07-20T00:20:59;6.83;;;2.93;;
2408;SDS011;8463;48.094;7.970;2023-07-20T00:23:25;2.37;;;2.17;;
2408;SDS011;8463;48.094;7.970;2023-07-20T00:25:51;2.90;;;2.60;;
2408;SDS011;8463;48.094;7.970;2023-07-20T00:28:17;3.07;;;2.03;;
2408;SDS011;8463;48.094;7.970;2023-07-20T00:30:42;2.97;;;2.77;;
2408;SDS011;8463;48.094;7.970;2023-07-20T00:33:12;4.33;;;2.30;;
2408;SDS011;8463;48.094;7.970;2023-07-20T00:35:41;2.77;;;2.50;;
2408;SDS011;8463;48.094;7.970;2023-07-20T00:38:07;3.33;;;2.57;;
2408;SDS011;8463;48.094;7.970;2023-07-20T00:40:36;3.13;;;2.83;;
2408;SDS011;8463;48.094;7.970;2023-07-20T00:43:05;2.60;;;2.40;;
2408;SDS011;8463;48.094;7.970;2023-07-20T00:45:31;2.50;;;2.00;;
2408;SDS011;8463;48.094;7.970;2023-07-20T00:47:58;2.63;;;2.37;;
2408;SDS011;8463;48.094;7.970;2023-07-20T00:50:25;3.93;;;2.80;;
2408;SDS011;8463;48.094;7.970;2023-07-20T00:52:57;3.80;;;2.80;;
2408;SDS011;8463;48.094;7.970;2023-07-20T00:55:23;2.97;;;2.67;;
2408;SDS011;8463;48.094;7.970;2023-07-20T00:57:50;3.40;;;2.53;;
2408;SDS011;8463;48.094;7.970;2023-07-20T01:00:16;6.10;;;2.70;;
2408;SDS011;8463;48.094;7.970;2023-07-20T01:02:43;2.90;;;2.60;;
2408;SDS011;8463;48.094;7.970;2023-07-20T01:05:08;3.77;;;2.90;;
2408;SDS011;8463;48.094;7.970;2023-07-20T01:07:35;4.00;;;2.63;;
2408;SDS011;8463;48.094;7.970;2023-07-20T01:13:21;2.67;;;2.47;;
2408;SDS011;8463;48.094;7.970;2023-07-20T01:15:56;5.10;;;2.87;;
2408;SDS011;8463;48.094;7.970;2023-07-20T01:18:24;3.53;;;3.23;;
2408;SDS011;8463;48.094;7.970;2023-07-20T01:20:50;2.80;;;2.60;;
2408;SDS011;8463;48.094;7.970;2023-07-20T01:23:25;3.20;;;2.90;;
2408;SDS011;8463;48.094;7.970;2023-07-20T01:29:22;3.80;;;2.30;;
2408;SDS011;8463;48.094;7.970;2023-07-20T01:32:00;3.43;;;3.07;;
2408;SDS011;8463;48.094;7.970;2023-07-20T01:34:34;3.63;;;2.47;;
2408;SDS011;8463;48.094;7.970;2023-07-20T01:37:01;3.10;;;2.60;;
2408;SDS011;8463;48.094;7.970;2023-07-20T01:39:28;2.20;;;2.00;;
2408;SDS011;8463;48.094;7.970;2023-07-20T01:41:57;3.20;;;2.63;;
2408;SDS011;8463;48.094;7.970;2023-07-20T01:44:29;3.03;;;2.73;;
2408;SDS011;8463;48.094;7.970;2023-07-20T01:46:55;3.63;;;3.00;;
2408;SDS011;8463;48.094;7.970;2023-07-20T01:49:20;4.57;;;2.67;;
2408;SDS011;8463;48.094;7.970;2023-07-20T01:51:50;3.50;;;2.70;;
2408;SDS011;8463;48.094;7.970;2023-07-20T01:54:15;4.17;;;2.80;;
2408;SDS011;8463;48.094;7.970;2023-07-20T01:56:42;5.83;;;2.73;;
2408;SDS011;8463;48.094;7.970;2023-07-20T01:59:07;5.30;;;2.73;;
2408;SDS011;8463;48.094;7.970;2023-07-20T02:01:33;2.93;;;2.60;;
2408;SDS011;8463;48.094;7.970;2023-07-20T02:03:59;4.70;;;2.80;;
2408;SDS011;8463;48.094;7.970;2023-07-20T02:06:24;5.37;;;3.00;;
2408;SDS011;8463;48.094;7.970;2023-07-20T02:08:50;2.87;;;2.67;;
2408;SDS011;8463;48.094;7.970;2023-07-20T02:11:18;2.53;;;2.20;;
2408;SDS011;8463;48.094;7.970;2023-07-20T02:13:43;2.83;;;2.53;;
2408;SDS011;8463;48.094;7.970;2023-07-20T02:16:09;4.00;;;2.90;;
2408;SDS011;8463;48.094;7.970;2023-07-20T02:18:36;3.03;;;2.83;;
2408;SDS011;8463;48.094;7.970;2023-07-20T02:21:02;6.70;;;2.93;;
2408;SDS011;8463;48.094;7.970;2023-07-20T02:23:27;3.13;;;2.83;;
2408;SDS011;8463;48.094;7.970;2023-07-20T02:25:54;3.77;;;2.87;;
2408;SDS011;8463;48.094;7.970;2023-07-20T02:28:20;2.93;;;2.53;;
2408;SDS011;8463;48.094;7.970;2023-07-20T02:30:45;3.60;;;2.73;;
2408;SDS011;8463;48.094;7.970;2023-07-20T02:33:11;3.60;;;2.73;;
2408;SDS011;8463;48.094;7.970;2023-07-20T02:35:37;3.13;;;2.23;;
2408;SDS011;8463;48.094;7.970;2023-07-20T02:38:02;2.60;;;2.40;;
2408;SDS011;8463;48.094;7.970;2023-07-20T02:40:28;3.30;;;2.70;;
2408;SDS011;8463;48.094;7.970;2023-07-20T02:42:54;2.87;;;2.67;;
2408;SDS011;8463;48.094;7.970;2023-07-20T02:45:22;3.67;;;2.63;;
2408;SDS011;8463;48.094;7.970;2023-07-20T02:47:47;3.57;;;3.03;;
2408;SDS011;8463;48.094;7.970;2023-07-20T02:50:13;4.20;;;2.63;;
2408;SDS011;8463;48.094;7.970;2023-07-20T02:52:39;3.53;;;3.10;;
2408;SDS011;8463;48.094;7.970;2023-07-20T02:55:04;2.80;;;2.60;;
2408;SDS011;8463;48.094;7.970;2023-07-20T02:57:30;3.03;;;2.27;;
2408;SDS011;8463;48.094;7.970;2023-07-20T02:59:56;2.93;;;2.73;;
2408;SDS011;8463;48.094;7.970;2023-07-20T03:02:21;4.20;;;2.70;;
2408;SDS011;8463;48.094;7.970;2023-07-20T03:04:47;4.03;;;3.00;;
2408;SDS011;8463;48.094;7.970;2023-07-20T03:07:19;3.93;;;2.73;;
2408;SDS011;8463;48.094;7.970;2023-07-20T03:09:44;2.63;;;2.30;;
2408;SDS011;8463;48.094;7.970;2023-07-20T03:12:12;4.93;;;2.60;;
2408;SDS011;8463;48.094;7.970;2023-07-20T03:14:38;2.47;;;2.10;;
2408;SDS011;8463;48.094;7.970;2023-07-20T03:17:04;2.93;;;2.73;;
2408;SDS011;8463;48.094;7.970;2023-07-20T03:19:29;2.73;;;2.47;;
2408;SDS011;8463;48.094;7.970;2023-07-20T03:21:55;2.87;;;2.40;;
2408;SDS011;8463;48.094;7.970;2023-07-20T03:24:21;2.67;;;2.20;;
2408;SDS011;8463;48.094;7.970;2023-07-20T03:26:46;3.60;;;2.83;;
2408;SDS011;8463;48.094;7.970;2023-07-20T03:29:14;2.47;;;2.27;;
2408;SDS011;8463;48.094;7.970;2023-07-20T03:31:42;4.93;;;2.50;;
2408;SDS011;8463;48.094;7.970;2023-07-20T03:34:08;2.70;;;2.50;;
2408;SDS011;8463;48.094;7.970;2023-07-20T03:36:34;3.60;;;2.40;;
2408;SDS011;8463;48.094;7.970;2023-07-20T03:38:59;3.40;;;2.53;;
2408;SDS011;8463;48.094;7.970;2023-07-20T03:41:25;4.70;;;3.00;;
2408;SDS011;8463;48.094;7.970;2023-07-20T03:43:50;4.50;;;2.87;;
2408;SDS011;8463;48.094;7.970;2023-07-20T03:46:16;3.23;;;2.80;;
2408;SDS011;8463;48.094;7.970;2023-07-20T03:48:42;2.77;;;2.40;;
2408;SDS011;8463;48.094;7.970;2023-07-20T03:51:08;3.30;;;2.87;;
2408;SDS011;8463;48.094;7.970;2023-07-20T03:53:35;2.77;;;2.30;;
2408;SDS011;8463;48.094;7.970;2023-07-20T03:56:00;3.60;;;3.30;;
2408;SDS011;8463;48.094;7.970;2023-07-20T03:58:26;3.03;;;2.57;;
2408;SDS011;8463;48.094;7.970;2023-07-20T04:00:58;5.43;;;2.70;;
2408;SDS011;8463;48.094;7.970;2023-07-20T04:03:23;3.23;;;2.27;;
2408;SDS011;8463;48.094;7.970;2023-07-20T04:05:53;4.50;;;2.90;;
2408;SDS011;8463;48.094;7.970;2023-07-20T04:08:20;3.63;;;2.53;;
2408;SDS011;8463;48.094;7.970;2023-07-20T04:10:47;7.93;;;3.07;;
2408;SDS011;8463;48.094;7.970;2023-07-20T04:13:15;3.20;;;2.40;;
2408;SDS011;8463;48.094;7.970;2023-07-20T04:15:41;2.80;;;2.00;;
2408;SDS011;8463;48.094;7.970;2023-07-20T04:18:10;5.00;;;3.27;;
2408;SDS011;8463;48.094;7.970;2023-07-20T04:20:36;3.63;;;3.17;;
2408;SDS011;8463;48.094;7.970;2023-07-20T04:23:02;3.70;;;2.80;;
2408;SDS011;8463;48.094;7.970;2023-07-20T04:25:27;4.00;;;2.97;;
2408;SDS011;8463;48.094;7.970;2023-07-20T04:27:53;4.07;;;2.70;;
2408;SDS011;8463;48.094;7.970;2023-07-20T04:30:19;3.43;;;2.50;;
2408;SDS011;8463;48.094;7.970;2023-07-20T04:32:50;4.13;;;2.90;;
2408;SDS011;8463;48.094;7.970;2023-07-20T04:35:17;2.83;;;2.57;;
2408;SDS011;8463;48.094;7.970;2023-07-20T04:38:07;2.80;;;2.60;;
2408;SDS011;8463;48.094;7.970;2023-07-20T04:40:32;4.87;;;2.80;;
2408;SDS011;8463;48.094;7.970;2023-07-20T04:42:58;3.00;;;2.67;;
2408;SDS011;8463;48.094;7.970;2023-07-20T04:45:24;5.60;;;3.20;;
2408;SDS011;8463;48.094;7.970;2023-07-20T04:47:49;3.70;;;3.20;;
2408;SDS011;8463;48.094;7.970;2023-07-20T04:50:16;4.60;;;3.00;;
2408;SDS011;8463;48.094;7.970;2023-07-20T04:52:43;2.50;;;2.30;;
2408;SDS011;8463;48.094;7.970;2023-07-20T04:55:08;3.60;;;3.30;;
2408;SDS011;8463;48.094;7.970;2023-07-20T04:57:34;3.80;;;3.00;;
2408;SDS011;8463;48.094;7.970;2023-07-20T04:59:59;4.47;;;3.27;;
2408;SDS011;8463;48.094;7.970;2023-07-20T05:02:26;3.30;;;3.00;;
2408;SDS011;8463;48.094;7.970;2023-07-20T05:04:58;3.40;;;2.73;;
2408;SDS011;8463;48.094;7.970;2023-07-20T05:07:24;3.33;;;3.00;;
2408;SDS011;8463;48.094;7.970;2023-07-20T05:09:49;3.23;;;2.67;;
2408;SDS011;8463;48.094;7.970;2023-07-20T05:12:15;3.23;;;2.83;;
2408;SDS011;8463;48.094;7.970;2023-07-20T05:14:40;3.50;;;2.67;;
2408;SDS011;8463;48.094;7.970;2023-07-20T05:17:07;5.10;;;2.93;;
2408;SDS011;8463;48.094;7.970;2023-07-20T05:19:33;3.20;;;2.90;;
2408;SDS011;8463;48.094;7.970;2023-07-20T05:22:02;2.93;;;2.70;;
2408;SDS011;8463;48.094;7.970;2023-07-20T05:24:27;3.60;;;3.20;;
2408;SDS011;8463;48.094;7.970;2023-07-20T05:26:55;3.00;;;2.70;;
2408;SDS011;8463;48.094;7.970;2023-07-20T05:29:21;5.03;;;3.10;;
2408;SDS011;8463;48.094;7.970;2023-07-20T05:31:47;4.77;;;2.73;;
2408;SDS011;8463;48.094;7.970;2023-07-20T05:34:15;3.37;;;2.93;;
2408;SDS011;8463;48.094;7.970;2023-07-20T05:36:41;3.50;;;2.97;;
2408;SDS011;8463;48.094;7.970;2023-07-20T05:39:09;3.10;;;2.60;;
2408;SDS011;8463;48.094;7.970;2023-07-20T05:41:35;3.67;;;2.77;;
2408;SDS011;8463;48.094;7.970;2023-07-20T05:44:01;4.07;;;3.20;;
2408;SDS011;8463;48.094;7.970;2023-07-20T05:46:26;3.10;;;2.80;;
2408;SDS011;8463;48.094;7.970;2023-07-20T05:48:54;2.60;;;2.40;;
2408;SDS011;8463;48.094;7.970;2023-07-20T05:51:26;2.73;;;2.53;;
2408;SDS011;8463;48.094;7.970;2023-07-20T05:53:52;4.30;;;2.80;;
2408;SDS011;8463;48.094;7.970;2023-07-20T05:56:18;3.10;;;2.80;;
2408;SDS011;8463;48.094;7.970;2023-07-20T05:58:44;7.47;;;3.30;;
2408;SDS011;8463;48.094;7.970;2023-07-20T06:01:09;3.67;;;3.40;;
2408;SDS011;8463;48.094;7.970;2023-07-20T06:03:35;3.30;;;2.83;;
2408;SDS011;8463;48.094;7.970;2023-07-20T06:06:02;3.27;;;2.97;;
2408;SDS011;8463;48.094;7.970;2023-07-20T06:08:29;4.63;;;2.40;;
2408;SDS011;8463;48.094;7.970;2023-07-20T06:10:56;3.30;;;3.00;;
2408;SDS011;8463;48.094;7.970;2023-07-20T06:13:22;3.57;;;3.20;;
2408;SDS011;8463;48.094;7.970;2023-07-20T06:15:48;4.20;;;3.20;;
2408;SDS011;8463;48.094;7.970;2023-07-20T06:18:16;6.23;;;3.77;;
2408;SDS011;8463;48.094;7.970;2023-07-20T06:20:48;3.17;;;2.97;;
2408;SDS011;8463;48.094;7.970;2023-07-20T06:23:15;3.53;;;3.13;;
2408;SDS011;8463;48.094;7.970;2023-07-20T06:25:40;5.80;;;4.50;;
2408;SDS011;8463;48.094;7.970;2023-07-20T06:28:08;3.90;;;3.60;;
2408;SDS011;8463;48.094;7.970;2023-07-20T06:30:34;4.23;;;3.13;;
2408;SDS011;8463;48.094;7.970;2023-07-20T06:32:59;4.20;;;3.17;;
2408;SDS011;8463;48.094;7.970;2023-07-20T06:35:25;4.07;;;2.70;;
2408;SDS011;8463;48.094;7.970;2023-07-20T06:37:51;3.53;;;3.10;;
2408;SDS011;8463;48.094;7.970;2023-07-20T06:40:20;4.20;;;3.10;;
2408;SDS011;8463;48.094;7.970;2023-07-20T06:42:47;3.83;;;2.93;;
2408;SDS011;8463;48.094;7.970;2023-07-20T06:45:13;5.60;;;3.40;;
2408;SDS011;8463;48.094;7.970;2023-07-20T06:47:39;4.37;;;3.30;;
2408;SDS011;8463;48.094;7.970;2023-07-20T06:50:05;5.00;;;3.10;;
2408;SDS011;8463;48.094;7.970;2023-07-20T06:52:32;4.37;;;3.40;;
2408;SDS011;8463;48.094;7.970;2023-07-20T06:54:58;4.20;;;2.87;;
2408;SDS011;8463;48.094;7.970;2023-07-20T06:57:24;3.87;;;3.17;;
2408;SDS011;8463;48.094;7.970;2023-07-20T06:59:52;3.57;;;2.80;;
2408;SDS011;8463;48.094;7.970;2023-07-20T07:02:18;3.43;;;2.90;;
2408;SDS011;8463;48.094;7.970;2023-07-20T07:04:44;3.10;;;2.80;;
2408;SDS011;8463;48.094;7.970;2023-07-20T07:07:10;3.10;;;2.80;;
2408;SDS011;8463;48.094;7.970;2023-07-20T07:09:36;5.10;;;3.47;;
2408;SDS011;8463;48.094;7.970;2023-07-20T07:12:01;3.93;;;3.17;;
2408;SDS011;8463;48.094;7.970;2023-07-20T07:14:27;2.60;;;2.40;;
2408;SDS011;8463;48.094;7.970;2023-07-20T07:16:53;2.50;;;2.30;;
2408;SDS011;8463;48.094;7.970;2023-07-20T07:19:18;4.30;;;2.90;;
2408;SDS011;8463;48.094;7.970;2023-07-20T07:21:46;4.63;;;3.10;;
2408;SDS011;8463;48.094;7.970;2023-07-20T07:24:12;5.93;;;2.73;;
2408;SDS011;8463;48.094;7.970;2023-07-20T07:26:38;4.80;;;2.57;;
2408;SDS011;8463;48.094;7.970;2023-07-20T07:29:04;5.80;;;2.43;;
2408;SDS011;8463;48.094;7.970;2023-07-20T07:31:30;6.10;;;2.40;;
2408;SDS011;8463;48.094;7.970;2023-07-20T07:33:56;4.00;;;2.90;;
2408;SDS011;8463;48.094;7.970;2023-07-20T07:36:22;3.10;;;2.67;;
2408;SDS011;8463;48.094;7.970;2023-07-20T07:38:49;4.63;;;3.23;;
2408;SDS011;8463;48.094;7.970;2023-07-20T07:41:16;3.07;;;2.77;;
2408;SDS011;8463;48.094;7.970;2023-07-20T07:43:41;3.57;;;2.73;;
2408;SDS011;8463;48.094;7.970;2023-07-20T07:46:07;3.20;;;2.90;;
2408;SDS011;8463;48.094;7.970;2023-07-20T07:48:35;4.83;;;2.90;;
2408;SDS011;8463;48.094;7.970;2023-07-20T07:51:01;5.60;;;3.50;;
2408;SDS011;8463;48.094;7.970;2023-07-20T07:53:26;7.67;;;3.40;;
2408;SDS011;8463;48.094;7.970;2023-07-20T07:55:52;13.90;;;3.20;;
2408;SDS011;8463;48.094;7.970;2023-07-20T07:58:17;4.80;;;3.30;;
2408;SDS011;8463;48.094;7.970;2023-07-20T08:00:43;2.90;;;2.60;;
2408;SDS011;8463;48.094;7.970;2023-07-20T08:03:09;4.60;;;2.90;;
2408;SDS011;8463;48.094;7.970;2023-07-20T08:05:35;3.60;;;2.60;;
2408;SDS011;8463;48.094;7.970;2023-07-20T08:08:04;3.60;;;3.30;;
2408;SDS011;8463;48.094;7.970;2023-07-20T08:10:30;6.30;;;3.07;;
2408;SDS011;8463;48.094;7.970;2023-07-20T08:12:56;4.10;;;2.40;;
2408;SDS011;8463;48.094;7.970;2023-07-20T08:15:22;4.37;;;2.80;;
2408;SDS011;8463;48.094;7.970;2023-07-20T08:17:48;2.90;;;2.33;;
2408;SDS011;8463;48.094;7.970;2023-07-20T08:20:14;6.37;;;3.13;;
2408;SDS011;8463;48.094;7.970;2023-07-20T08:22:42;3.53;;;2.67;;
2408;SDS011;8463;48.094;7.970;2023-07-20T08:25:08;3.43;;;2.00;;
2408;SDS011;8463;48.094;7.970;2023-07-20T08:27:34;2.60;;;2.17;;
2408;SDS011;8463;48.094;7.970;2023-07-20T08:30:00;2.50;;;2.07;;
2408;SDS011;8463;48.094;7.970;2023-07-20T08:32:28;3.13;;;2.73;;
2408;SDS011;8463;48.094;7.970;2023-07-20T08:34:57;4.77;;;2.40;;
2408;SDS011;8463;48.094;7.970;2023-07-20T08:37:23;8.87;;;2.80;;
2408;SDS011;8463;48.094;7.970;2023-07-20T08:39:49;5.73;;;2.47;;
2408;SDS011;8463;48.094;7.970;2023-07-20T08:42:14;3.40;;;2.40;;
2408;SDS011;8463;48.094;7.970;2023-07-20T08:44:41;3.10;;;2.33;;
2408;SDS011;8463;48.094;7.970;2023-07-20T08:47:09;2.90;;;2.20;;
2408;SDS011;8463;48.094;7.970;2023-07-20T08:49:39;2.63;;;1.83;;
2408;SDS011;8463;48.094;7.970;2023-07-20T08:52:08;3.77;;;1.77;;
2408;SDS011;8463;48.094;7.970;2023-07-20T08:54:34;1.60;;;1.50;;
2408;SDS011;8463;48.094;7.970;2023-07-20T08:57:04;1.87;;;1.73;;
2408;SDS011;8463;48.094;7.970;2023-07-20T08:59:33;2.80;;;2.27;;
2408;SDS011;8463;48.094;7.970;2023-07-20T09:02:01;3.60;;;2.27;;
2408;SDS011;8463;48.094;7.970;2023-07-20T09:04:30;2.53;;;1.97;;
2408;SDS011;8463;48.094;7.970;2023-07-20T09:06:56;2.30;;;1.67;;
2408;SDS011;8463;48.094;7.970;2023-07-20T09:09:22;2.70;;;1.67;;
2408;SDS011;8463;48.094;7.970;2023-07-20T09:11:49;4.63;;;2.00;;
2408;SDS011;8463;48.094;7.970;2023-07-20T09:14:15;2.53;;;1.50;;
2408;SDS011;8463;48.094;7.970;2023-07-20T09:19:17;2.20;;;2.00;;
2408;SDS011;8463;48.094;7.970;2023-07-20T09:21:49;3.00;;;2.40;;
2408;SDS011;8463;48.094;7.970;2023-07-20T09:24:17;2.57;;;1.87;;
2408;SDS011;8463;48.094;7.970;2023-07-20T09:26:46;2.57;;;2.20;;
2408;SDS011;8463;48.094;7.970;2023-07-20T09:29:20;2.67;;;2.20;;
2408;SDS011;8463;48.094;7.970;2023-07-20T09:31:58;2.80;;;2.60;;
2408;SDS011;8463;48.094;7.970;2023-07-20T09:34:31;4.30;;;2.00;;
2408;SDS011;8463;48.094;7.970;2023-07-20T09:36:58;12.97;;;2.77;;
2408;SDS011;8463;48.094;7.970;2023-07-20T09:39:27;3.53;;;2.33;;
2408;SDS011;8463;48.094;7.970;2023-07-20T09:41:53;2.63;;;2.10;;
2408;SDS011;8463;48.094;7.970;2023-07-20T09:44:19;3.50;;;2.50;;
2408;SDS011;8463;48.094;7.970;2023-07-20T09:46:48;5.20;;;2.30;;
2408;SDS011;8463;48.094;7.970;2023-07-20T09:49:14;2.63;;;2.37;;
2408;SDS011;8463;48.094;7.970;2023-07-20T09:51:42;3.10;;;2.00;;
2408;SDS011;8463;48.094;7.970;2023-07-20T09:54:13;2.17;;;1.97;;
2408;SDS011;8463;48.094;7.970;2023-07-20T09:56:40;2.13;;;1.93;;
2408;SDS011;8463;48.094;7.970;2023-07-20T09:59:07;3.03;;;2.30;;
2408;SDS011;8463;48.094;7.970;2023-07-20T10:01:34;4.27;;;2.47;;
2408;SDS011;8463;48.094;7.970;2023-07-20T10:04:00;3.70;;;2.30;;
2408;SDS011;8463;48.094;7.970;2023-07-20T10:06:29;2.80;;;2.27;;
2408;SDS011;8463;48.094;7.970;2023-07-20T10:09:00;3.20;;;2.00;;
2408;SDS011;8463;48.094;7.970;2023-07-20T10:11:29;2.20;;;1.57;;
2408;SDS011;8463;48.094;7.970;2023-07-20T10:13:59;3.20;;;2.30;;
2408;SDS011;8463;48.094;7.970;2023-07-20T10:16:29;2.03;;;1.83;;
2408;SDS011;8463;48.094;7.970;2023-07-20T10:19:05;5.60;;;2.03;;
2408;SDS011;8463;48.094;7.970;2023-07-20T10:21:31;4.63;;;2.13;;
2408;SDS011;8463;48.094;7.970;2023-07-20T10:24:00;2.10;;;1.90;;
2408;SDS011;8463;48.094;7.970;2023-07-20T10:26:29;2.40;;;1.80;;
2408;SDS011;8463;48.094;7.970;2023-07-20T10:28:59;2.70;;;1.97;;
2408;SDS011;8463;48.094;7.970;2023-07-20T10:31:25;3.00;;;2.43;;
2408;SDS011;8463;48.094;7.970;2023-07-20T10:33:53;2.20;;;1.80;;
2408;SDS011;8463;48.094;7.970;2023-07-20T10:36:30;3.70;;;2.40;;
2408;SDS011;8463;48.094;7.970;2023-07-20T10:38:56;5.00;;;2.40;;
2408;SDS011;8463;48.094;7.970;2023-07-20T10:41:29;5.63;;;1.93;;
2408;SDS011;8463;48.094;7.970;2023-07-20T10:44:04;3.93;;;2.60;;
2408;SDS011;8463;48.094;7.970;2023-07-20T10:49:05;3.40;;;2.00;;
2408;SDS011;8463;48.094;7.970;2023-07-20T10:51:42;2.20;;;2.00;;
2408;SDS011;8463;48.094;7.970;2023-07-20T10:57:21;2.87;;;1.97;;
2408;SDS011;8463;48.094;7.970;2023-07-20T11:00:09;2.40;;;2.20;;
2408;SDS011;8463;48.094;7.970;2023-07-20T11:02:45;2.10;;;1.97;;
2408;SDS011;8463;48.094;7.970;2023-07-20T11:08:03;3.57;;;1.87;;
2408;SDS011;8463;48.094;7.970;2023-07-20T11:10:38;1.80;;;1.70;;
2408;SDS011;8463;48.094;7.970;2023-07-20T11:13:23;2.77;;;2.17;;
2408;SDS011;8463;48.094;7.970;2023-07-20T11:18:22;6.57;;;2.13;;
2408;SDS011;8463;48.094;7.970;2023-07-20T11:20:59;7.57;;;2.33;;
2408;SDS011;8463;48.094;7.970;2023-07-20T11:23:25;5.03;;;2.40;;
2408;SDS011;8463;48.094;7.970;2023-07-20T11:25:51;3.17;;;2.83;;
2408;SDS011;8463;48.094;7.970;2023-07-20T11:28:17;3.10;;;2.27;;
2408;SDS011;8463;48.094;7.970;2023-07-20T11:30:44;5.10;;;2.40;;
2408;SDS011;8463;48.094;7.970;2023-07-20T11:33:15;3.63;;;2.83;;
2408;SDS011;8463;48.094;7.970;2023-07-20T11:35:42;3.00;;;1.80;;
2408;SDS011;8463;48.094;7.970;2023-07-20T11:38:11;2.50;;;2.30;;
2408;SDS011;8463;48.094;7.970;2023-07-20T11:40:41;2.20;;;2.00;;
2408;SDS011;8463;48.094;7.970;2023-07-20T11:43:11;3.07;;;2.57;;
2408;SDS011;8463;48.094;7.970;2023-07-20T11:45:38;3.50;;;2.17;;
2408;SDS011;8463;48.094;7.970;2023-07-20T11:48:04;2.80;;;2.20;;
2408;SDS011;8463;48.094;7.970;2023-07-20T11:50:30;2.43;;;2.00;;
2408;SDS011;8463;48.094;7.970;2023-07-20T11:52:56;5.50;;;2.77;;
2408;SDS011;8463;48.094;7.970;2023-07-20T11:55:22;2.47;;;2.27;;
2408;SDS011;8463;48.094;7.970;2023-07-20T12:00:37;2.63;;;1.87;;
2408;SDS011;8463;48.094;7.970;2023-07-20T12:03:11;1.83;;;1.63;;
2408;SDS011;8463;48.094;7.970;2023-07-20T12:05:40;2.13;;;1.93;;
2408;SDS011;8463;48.094;7.970;2023-07-20T12:08:14;2.10;;;1.90;;
2408;SDS011;8463;48.094;7.970;2023-07-20T12:10:40;6.93;;;2.90;;
2408;SDS011;8463;48.094;7.970;2023-07-20T12:13:09;3.23;;;1.90;;
2408;SDS011;8463;48.094;7.970;2023-07-20T12:15:37;2.50;;;2.30;;
2408;SDS011;8463;48.094;7.970;2023-07-20T12:18:02;3.70;;;2.20;;
2408;SDS011;8463;48.094;7.970;2023-07-20T12:20:35;2.23;;;2.03;;
2408;SDS011;8463;48.094;7.970;2023-07-20T12:23:09;3.10;;;2.27;;
2408;SDS011;8463;48.094;7.970;2023-07-20T12:28:14;3.67;;;2.30;;
2408;SDS011;8463;48.094;7.970;2023-07-20T12:30:47;2.50;;;1.70;;
2408;SDS011;8463;48.094;7.970;2023-07-20T12:33:21;1.93;;;1.73;;
2408;SDS011;8463;48.094;7.970;2023-07-20T12:35:47;2.73;;;1.87;;
2408;SDS011;8463;48.094;7.970;2023-07-20T12:38:14;2.57;;;2.23;;
2408;SDS011;8463;48.094;7.970;2023-07-20T12:40:41;5.30;;;1.93;;
2408;SDS011;8463;48.094;7.970;2023-07-20T12:43:07;4.40;;;2.00;;
2408;SDS011;8463;48.094;7.970;2023-07-20T12:45:33;2.17;;;1.97;;
2408;SDS011;8463;48.094;7.970;2023-07-20T12:47:59;2.20;;;1.90;;
2408;SDS011;8463;48.094;7.970;2023-07-20T12:50:24;2.73;;;1.50;;
2408;SDS011;8463;48.094;7.970;2023-07-20T12:52:51;2.30;;;1.87;;
2408;SDS011;8463;48.094;7.970;2023-07-20T12:55:17;1.63;;;1.53;;
2408;SDS011;8463;48.094;7.970;2023-07-20T12:57:51;1.97;;;1.87;;
2408;SDS011;8463;48.094;7.970;2023-07-20T13:00:24;2.87;;;2.60;;
2408;SDS011;8463;48.094;7.970;2023-07-20T13:02:50;2.33;;;2.00;;
2408;SDS011;8463;48.094;7.970;2023-07-20T13:05:16;3.10;;;2.07;;
2408;SDS011;8463;48.094;7.970;2023-07-20T13:07:42;2.27;;;1.73;;
2408;SDS011;8463;48.094;7.970;2023-07-20T13:10:08;4.67;;;2.37;;
2408;SDS011;8463;48.094;7.970;2023-07-20T13:12:38;1.83;;;1.73;;
2408;SDS011;8463;48.094;7.970;2023-07-20T13:15:04;2.90;;;2.27;;
2408;SDS011;8463;48.094;7.970;2023-07-20T13:17:32;5.00;;;2.33;;
2408;SDS011;8463;48.094;7.970;2023-07-20T13:20:02;5.63;;;2.23;;
2408;SDS011;8463;48.094;7.970;2023-07-20T13:22:31;2.20;;;2.00;;
2408;SDS011;8463;48.094;7.970;2023-07-20T13:25:02;2.17;;;1.90;;
2408;SDS011;8463;48.094;7.970;2023-07-20T13:27:29;2.43;;;1.97;;
2408;SDS011;8463;48.094;7.970;2023-07-20T13:29:56;2.30;;;2.20;;
2408;SDS011;8463;48.094;7.970;2023-07-20T13:32:23;1.90;;;1.70;;
2408;SDS011;8463;48.094;7.970;2023-07-20T13:34:48;2.83;;;2.03;;
2408;SDS011;8463;48.094;7.970;2023-07-20T13:37:14;2.17;;;1.87;;
2408;SDS011;8463;48.094;7.970;2023-07-20T13:39:43;1.70;;;1.60;;
2408;SDS011;8463;48.094;7.970;2023-07-20T13:42:10;2.50;;;2.30;;
2408;SDS011;8463;48.094;7.970;2023-07-20T13:44:37;2.43;;;2.20;;
2408;SDS011;8463;48.094;7.970;2023-07-20T13:47:05;3.03;;;2.53;;
2408;SDS011;8463;48.094;7.970;2023-07-20T13:49:35;3.10;;;2.27;;
2408;SDS011;8463;48.094;7.970;2023-07-20T13:52:08;2.60;;;2.00;;
2408;SDS011;8463;48.094;7.970;2023-07-20T13:54:34;2.23;;;1.83;;
2408;SDS011;8463;48.094;7.970;2023-07-20T13:57:00;4.10;;;2.20;;
2408;SDS011;8463;48.094;7.970;2023-07-20T13:59:28;1.87;;;1.77;;
2408;SDS011;8463;48.094;7.970;2023-07-20T14:02:05;5.03;;;2.30;;
2408;SDS011;8463;48.094;7.970;2023-07-20T14:04:30;3.63;;;1.83;;
2408;SDS011;8463;48.094;7.970;2023-07-20T14:06:58;2.60;;;1.90;;
2408;SDS011;8463;48.094;7.970;2023-07-20T14:09:26;2.43;;;1.90;;
2408;SDS011;8463;48.094;7.970;2023-07-20T14:11:52;2.70;;;1.93;;
2408;SDS011;8463;48.094;7.970;2023-07-20T14:14:17;2.30;;;2.10;;
2408;SDS011;8463;48.094;7.970;2023-07-20T14:16:43;2.27;;;2.07;;
2408;SDS011;8463;48.094;7.970;2023-07-20T14:19:08;3.10;;;2.20;;
2408;SDS011;8463;48.094;7.970;2023-07-20T14:21:34;3.97;;;1.90;;
2408;SDS011;8463;48.094;7.970;2023-07-20T14:24:02;3.20;;;1.87;;
2408;SDS011;8463;48.094;7.970;2023-07-20T14:26:28;2.33;;;1.97;;
2408;SDS011;8463;48.094;7.970;2023-07-20T14:28:54;3.50;;;1.93;;
2408;SDS011;8463;48.094;7.970;2023-07-20T14:31:22;4.63;;;2.20;;
2408;SDS011;8463;48.094;7.970;2023-07-20T14:33:50;4.07;;;2.43;;
2408;SDS011;8463;48.094;7.970;2023-07-20T14:36:18;1.80;;;1.70;;
2408;SDS011;8463;48.094;7.970;2023-07-20T14:38:44;3.30;;;2.10;;
2408;SDS011;8463;48.094;7.970;2023-07-20T14:41:10;2.27;;;2.07;;
2408;SDS011;8463;48.094;7.970;2023-07-20T14:43:37;1.83;;;1.60;;
2408;SDS011;8463;48.094;7.970;2023-07-20T14:46:03;3.50;;;2.30;;
2408;SDS011;8463;48.094;7.970;2023-07-20T14:48:29;4.93;;;2.20;;
2408;SDS011;8463;48.094;7.970;2023-07-20T14:50:55;5.13;;;2.10;;
2408;SDS011;8463;48.094;7.970;2023-07-20T14:53:23;3.13;;;1.90;;
2408;SDS011;8463;48.094;7.970;2023-07-20T14:55:49;3.10;;;2.00;;
2408;SDS011;8463;48.094;7.970;2023-07-20T14:58:15;4.67;;;2.17;;
2408;SDS011;8463;48.094;7.970;2023-07-20T15:00:40;2.70;;;1.83;;
2408;SDS011;8463;48.094;7.970;2023-07-20T15:03:06;2.20;;;1.67;;
2408;SDS011;8463;48.094;7.970;2023-07-20T15:05:34;5.53;;;2.23;;
2408;SDS011;8463;48.094;7.970;2023-07-20T15:08:01;3.87;;;1.70;;
2408;SDS011;8463;48.094;7.970;2023-07-20T15:10:34;7.13;;;1.87;;
2408;SDS011;8463;48.094;7.970;2023-07-20T15:13:02;1.83;;;1.60;;
2408;SDS011;8463;48.094;7.970;2023-07-20T15:15:28;1.67;;;1.57;;
2408;SDS011;8463;48.094;7.970;2023-07-20T15:17:53;3.17;;;2.13;;
2408;SDS011;8463;48.094;7.970;2023-07-20T15:20:19;2.33;;;1.63;;
2408;SDS011;8463;48.094;7.970;2023-07-20T15:22:45;1.97;;;1.87;;
2408;SDS011;8463;48.094;7.970;2023-07-20T15:25:11;2.50;;;1.93;;
2408;SDS011;8463;48.094;7.970;2023-07-20T15:27:37;5.70;;;2.57;;
2408;SDS011;8463;48.094;7.970;2023-07-20T15:30:03;2.17;;;1.90;;
2408;SDS011;8463;48.094;7.970;2023-07-20T15:32:30;2.40;;;1.83;;
2408;SDS011;8463;48.094;7.970;2023-07-20T15:34:55;2.10;;;2.00;;
2408;SDS011;8463;48.094;7.970;2023-07-20T15:37:21;2.93;;;2.17;;
2408;SDS011;8463;48.094;7.970;2023-07-20T15:39:47;2.70;;;1.90;;
2408;SDS011;8463;48.094;7.970;2023-07-20T15:42:14;2.03;;;1.77;;